createdAt,value
2022-11-27T00:03:01.166Z,101084.97
2022-11-27T00:08:03.333Z,101085.63
2022-11-27T00:13:05.369Z,101075.03
2022-11-27T00:18:07.493Z,101083.50
2022-11-27T00:23:09.561Z,101077.47
2022-11-27T00:28:11.505Z,101086.16
2022-11-27T00:33:13.506Z,101069.31
2022-11-27T00:38:16.524Z,101089.53
2022-11-27T00:43:18.651Z,101084.25
2022-11-27T00:48:20.726Z,101080.91
2022-11-27T00:53:22.857Z,101087.81
2022-11-27T00:58:25.883Z,101085.22
2022-11-27T01:03:28.926Z,101081.72
2022-11-27T01:08:31.374Z,101078.47
2022-11-27T01:13:36.051Z,101077.47
2022-11-27T01:18:39.971Z,101085.25
2022-11-27T01:23:42.175Z,101079.50
2022-11-27T01:28:44.736Z,101086.28
2022-11-27T01:33:47.561Z,101056.47
2022-11-27T01:38:49.771Z,101055.63
2022-11-27T01:43:58.970Z,101080.06
2022-11-27T01:49:09.820Z,101092.00
2022-11-27T01:54:13.119Z,101059.72
2022-11-27T01:59:17.595Z,101080.81
2022-11-27T02:04:19.740Z,101079.16
2022-11-27T02:09:21.961Z,101088.47
2022-11-27T02:14:24.028Z,101078.78
2022-11-27T02:20:19.981Z,101081.09
2022-11-27T02:25:28.311Z,101075.34
2022-11-27T02:30:36.133Z,101083.88
2022-11-27T02:35:52.426Z,101093.28
2022-11-27T02:41:00.674Z,101094.94
2022-11-27T02:46:05.222Z,101072.94
2022-11-27T02:51:09.606Z,101100.06
2022-11-27T02:56:18.896Z,101106.81
2022-11-27T03:01:23.791Z,101101.66
2022-11-27T03:06:31.386Z,101105.84
2022-11-27T03:11:34.003Z,101083.97
2022-11-27T03:16:46.193Z,101115.13
2022-11-27T03:21:54.144Z,101123.66
2022-11-27T03:26:58.574Z,101118.47
2022-11-27T03:32:01.416Z,101113.38
2022-11-27T03:37:04.577Z,101105.53
2022-11-27T03:42:26.048Z,101098.28
2022-11-27T03:47:33.839Z,101107.22
2022-11-27T03:53:09.657Z,101103.25
2022-11-27T03:58:30.765Z,101100.66
2022-11-27T04:03:32.907Z,101097.53
2022-11-27T04:08:35.213Z,101111.47
2022-11-27T04:13:37.273Z,101095.09
2022-11-27T04:18:39.281Z,101080.41
2022-11-27T04:23:41.346Z,101105.00
2022-11-27T04:28:43.314Z,101110.03
2022-11-27T04:33:45.316Z,101105.53
2022-11-27T04:38:47.322Z,101115.88
2022-11-27T04:43:49.321Z,101109.63
2022-11-27T04:48:51.367Z,101110.53
2022-11-27T04:53:53.401Z,101110.34
2022-11-27T04:58:55.431Z,101112.03
2022-11-27T05:03:57.463Z,101124.81
2022-11-27T05:09:02.570Z,101103.19
2022-11-27T05:14:18.042Z,101114.25
2022-11-27T05:19:22.108Z,101114.09
2022-11-27T05:24:26.284Z,101102.34
2022-11-27T05:29:28.436Z,101095.84
2022-11-27T05:34:30.516Z,101121.09
2022-11-27T05:39:32.489Z,101113.78
2022-11-27T05:44:34.511Z,101125.56
2022-11-27T05:49:36.811Z,101129.84
2022-11-27T05:54:39.186Z,101135.56
2022-11-27T05:59:41.356Z,101141.50
2022-11-27T06:04:43.315Z,101143.72
2022-11-27T06:09:45.399Z,101143.53
2022-11-27T06:14:47.380Z,101152.66
2022-11-27T06:19:51.615Z,101143.78
2022-11-27T06:24:53.683Z,101142.78
2022-11-27T06:29:55.723Z,101146.00
2022-11-27T06:34:57.815Z,101152.63
2022-11-27T06:39:59.904Z,101129.22
2022-11-27T06:45:01.982Z,101151.09
2022-11-27T06:50:05.898Z,101142.13
2022-11-27T06:55:08.317Z,101157.44
2022-11-27T07:00:10.822Z,101126.56
2022-11-27T07:05:12.829Z,101157.94
2022-11-27T07:10:14.880Z,101160.88
2022-11-27T07:15:16.950Z,101163.25
2022-11-27T07:20:19.028Z,101146.78
2022-11-27T07:25:21.177Z,101156.44
2022-11-27T07:30:23.158Z,101145.69
2022-11-27T07:35:25.158Z,101131.81
2022-11-27T07:40:27.273Z,101148.19
2022-11-27T07:45:29.407Z,101137.84
2022-11-27T07:50:31.562Z,101139.28
2022-11-27T07:55:33.601Z,101152.97
2022-11-27T08:00:36.216Z,101154.44
2022-11-27T08:05:38.729Z,101131.53
2022-11-27T08:10:41.299Z,101131.41
2022-11-27T08:15:43.530Z,101154.13
2022-11-27T08:20:45.659Z,101141.44
2022-11-27T08:25:47.737Z,101142.38
2022-11-27T08:30:57.785Z,101137.72
2022-11-27T08:36:00.041Z,101121.22
2022-11-27T08:41:04.420Z,101117.50
2022-11-27T08:46:07.755Z,101119.28
2022-11-27T08:51:15.934Z,101145.72
2022-11-27T08:56:20.914Z,101138.34
2022-11-27T09:01:28.940Z,101143.69
2022-11-27T09:06:36.398Z,101142.56
2022-11-27T09:11:38.663Z,101137.13
2022-11-27T09:16:40.752Z,101128.16
2022-11-27T09:21:42.947Z,101106.19
2022-11-27T09:26:44.980Z,101131.69
2022-11-27T09:31:47.196Z,101132.53
2022-11-27T09:36:50.667Z,101133.63
2022-11-27T09:41:59.268Z,101137.41
2022-11-27T09:47:16.470Z,101116.94
2022-11-27T09:52:28.641Z,101145.38
2022-11-27T09:57:37.642Z,101129.84
2022-11-27T10:02:43.362Z,101134.50
2022-11-27T10:08:27.426Z,101143.31
2022-11-27T10:13:41.684Z,101151.22
2022-11-27T10:18:48.567Z,101149.00
2022-11-27T10:24:13.139Z,101153.59
2022-11-27T10:29:33.868Z,101150.75
2022-11-27T10:34:44.122Z,101151.34
2022-11-27T10:39:54.227Z,101153.63
2022-11-27T10:45:04.692Z,101142.25
2022-11-27T10:50:17.841Z,101129.56
2022-11-27T10:55:28.892Z,101135.16
2022-11-27T11:00:30.978Z,101119.09
2022-11-27T11:11:02.232Z,101156.09
2022-11-27T11:16:14.645Z,101157.53
2022-11-27T11:21:23.377Z,101128.03
2022-11-27T11:26:38.352Z,101156.03
2022-11-27T11:31:41.335Z,101167.81
2022-11-27T11:36:58.809Z,101152.94
2022-11-27T11:42:01.217Z,101149.91
2022-11-27T11:47:03.528Z,101154.06
2022-11-27T11:52:36.162Z,101162.22
2022-11-27T11:57:57.030Z,101153.44
2022-11-27T12:03:24.305Z,101164.00
2022-11-27T12:08:29.181Z,101162.25
2022-11-27T12:14:11.428Z,101154.09
2022-11-27T12:19:22.222Z,101153.06
2022-11-27T12:25:02.577Z,101162.47
2022-11-27T12:30:19.829Z,101160.50
2022-11-27T12:35:29.337Z,101185.88
2022-11-27T12:41:03.500Z,101181.63
2022-11-27T12:46:19.076Z,101175.44
2022-11-27T12:51:24.818Z,101188.03
2022-11-27T12:56:38.061Z,101201.19
2022-11-27T13:01:46.044Z,101193.38
2022-11-27T13:07:23.402Z,101196.56
2022-11-27T13:12:37.226Z,101187.97
2022-11-27T13:17:44.467Z,101162.88
2022-11-27T13:22:48.370Z,101188.66
2022-11-27T13:27:53.077Z,101185.34
2022-11-27T13:32:58.819Z,101188.00
2022-11-27T13:38:14.721Z,101180.06
2022-11-27T13:43:44.383Z,101190.53
2022-11-27T13:48:57.689Z,101181.41
2022-11-27T13:54:12.218Z,101188.06
2022-11-27T13:59:25.111Z,101185.34
2022-11-27T14:04:32.035Z,101190.59
2022-11-27T14:09:50.115Z,101176.28
2022-11-27T14:15:04.083Z,101193.81
2022-11-27T14:20:10.133Z,101194.91
2022-11-27T14:25:27.876Z,101207.88
2022-11-27T14:30:45.031Z,101195.03
2022-11-27T14:35:58.454Z,101202.88
2022-11-27T14:41:15.533Z,101214.88
2022-11-27T14:46:20.746Z,101210.81
2022-11-27T14:51:36.317Z,101195.81
2022-11-27T14:56:42.326Z,101205.81
2022-11-27T15:01:46.826Z,101179.34
2022-11-27T15:06:48.994Z,101199.03
2022-11-27T15:12:21.667Z,101187.31
2022-11-27T15:17:28.384Z,101196.25
2022-11-27T15:22:33.467Z,101183.47
2022-11-27T15:27:47.036Z,101171.00
2022-11-27T15:32:51.777Z,101195.75
2022-11-27T15:38:04.509Z,101168.56
2022-11-27T15:43:14.476Z,101181.41
2022-11-27T15:48:19.624Z,101200.16
2022-11-27T15:53:21.803Z,101204.59
2022-11-27T15:58:24.325Z,101208.75
2022-11-27T16:03:27.006Z,101182.72
2022-11-27T16:08:29.026Z,101204.06
2022-11-27T16:13:31.502Z,101223.13
2022-11-27T16:18:34.683Z,101210.38
2022-11-27T16:23:38.561Z,101221.53
2022-11-27T16:28:41.377Z,101198.66
2022-11-27T16:33:44.119Z,101223.34
2022-11-27T16:38:49.088Z,101214.75
2022-11-27T16:43:56.295Z,101219.78
2022-11-27T16:49:00.944Z,101231.09
2022-11-27T16:54:08.610Z,101223.63
2022-11-27T16:59:13.905Z,101222.78
2022-11-27T17:04:19.743Z,101226.09
2022-11-27T17:09:26.992Z,101228.88
2022-11-27T17:14:29.433Z,101212.88
2022-11-27T17:19:32.084Z,101241.03
2022-11-27T17:24:35.932Z,101236.25
2022-11-27T17:29:42.233Z,101231.94
2022-11-27T17:34:45.516Z,101223.50
2022-11-27T17:39:48.569Z,101233.88
2022-11-27T17:44:51.912Z,101217.88
2022-11-27T17:49:54.116Z,101233.38
2022-11-27T17:54:56.631Z,101211.44
2022-11-27T17:59:58.982Z,101241.31
2022-11-27T18:05:01.220Z,101224.25
2022-11-27T18:10:05.393Z,101236.28
2022-11-27T18:15:09.694Z,101209.09
2022-11-27T18:20:12.424Z,101244.94
2022-11-27T18:25:14.507Z,101235.44
2022-11-27T18:30:17.009Z,101241.06
2022-11-27T18:35:19.588Z,101233.47
2022-11-27T18:40:21.705Z,101231.66
2022-11-27T18:45:32.795Z,101210.38
2022-11-27T18:50:36.606Z,101238.28
2022-11-27T18:55:38.902Z,101238.16
2022-11-27T19:00:41.282Z,101246.06
2022-11-27T19:05:47.310Z,101246.25
2022-11-27T19:10:49.800Z,101249.56
2022-11-27T19:15:52.171Z,101243.59
2022-11-27T19:20:55.853Z,101228.22
2022-11-27T19:25:58.417Z,101250.22
2022-11-27T19:31:04.855Z,101259.56
2022-11-27T19:36:10.619Z,101256.91
2022-11-27T19:41:18.210Z,101250.09
2022-11-27T19:46:26.709Z,101250.06
2022-11-27T19:51:33.353Z,101249.66
2022-11-27T19:56:37.550Z,101260.13
2022-11-27T20:01:40.631Z,101254.91
2022-11-27T20:06:42.954Z,101256.63
2022-11-27T20:11:45.301Z,101254.66
2022-11-27T20:16:47.597Z,101270.34
2022-11-27T20:21:49.923Z,101283.34
2022-11-27T20:26:53.206Z,101277.53
2022-11-27T20:31:56.109Z,101282.31
2022-11-27T20:36:58.220Z,101272.94
2022-11-27T20:42:00.371Z,101261.97
2022-11-27T20:47:02.783Z,101286.06
2022-11-27T20:52:06.033Z,101285.38
2022-11-27T20:57:14.205Z,101293.69
2022-11-27T21:02:16.434Z,101291.72
2022-11-27T21:07:19.523Z,101272.81
2022-11-27T21:12:21.616Z,101281.75
2022-11-27T21:17:24.582Z,101255.41
2022-11-27T21:22:26.967Z,101272.41
2022-11-27T21:27:29.614Z,101281.53
2022-11-27T21:32:31.695Z,101285.63
2022-11-27T21:37:35.423Z,101260.72
2022-11-27T21:42:42.989Z,101285.84
2022-11-27T21:47:46.603Z,101277.91
2022-11-27T21:52:48.943Z,101299.00
2022-11-27T21:57:50.983Z,101299.28
2022-11-27T22:02:53.179Z,101288.84
2022-11-27T22:07:55.476Z,101298.44
2022-11-27T22:12:57.670Z,101297.44
2022-11-27T22:17:59.637Z,101292.13
2022-11-27T22:23:01.703Z,101281.88
2022-11-27T22:28:03.996Z,101306.28
2022-11-27T22:33:06.333Z,101298.28
2022-11-27T22:38:08.570Z,101282.25
2022-11-27T22:43:10.598Z,101272.84
2022-11-27T22:48:12.855Z,101300.94
2022-11-27T22:53:15.473Z,101308.44
2022-11-27T22:58:17.633Z,101288.38
2022-11-27T23:03:19.806Z,101279.59
2022-11-27T23:08:22.347Z,101291.59
2022-11-27T23:13:24.421Z,101323.34
2022-11-27T23:18:26.487Z,101319.09
2022-11-27T23:23:28.576Z,101315.78
2022-11-27T23:28:30.764Z,101313.78
2022-11-27T23:33:33.281Z,101319.09
2022-11-27T23:38:35.509Z,101292.75
2022-11-27T23:43:37.755Z,101331.25
2022-11-27T23:48:39.817Z,101318.34
2022-11-27T23:53:42.031Z,101337.84
2022-11-27T23:58:47.415Z,101314.03
